Time;durP1;ratioP1;P1;durP2;ratioP2;P2;SDS_P1;SDS_P2;PMS_P1;PMS_P2;Temp;Humidity;BMP_temperature;BMP_pressure;BME280_temperature;BME280_humidity;BME280_pressure;Samples;Min_cycle;Max_cycle;Signal;HPM_P1;HPM_P2
2022/10/05 00:00:15;;;;;;;;;;;;;;;;;;5116557;28;20328;-86
2022/10/05 00:02:40;;;;;;;;;;;;;;;;;;5117630;28;19915;-86
2022/10/05 00:05:27;;;;;;;;;;;;;;;;;;5116128;28;20267;-86
2022/10/05 00:07:53;;;;;;;;;;;;;;;;;;5116220;28;19915;-87
2022/10/05 00:10:18;;;;;;;;;;;;;;;;;;5116033;28;20321;-85
2022/10/05 00:12:44;;;;;;;;;;;;;;;;;;5099464;28;20262;-86
2022/10/05 00:15:10;;;;;;;;;;;;;;;;;;5117023;27;19998;-85
2022/10/05 00:17:35;;;;;;;;;;;;;;;;;;5115907;28;19922;-85
2022/10/05 00:20:01;;;;;;;;;;;;;;;;;;5116265;28;19916;-85
2022/10/05 00:22:30;;;;;;;;;;;;;;;;;;5116276;28;19939;-85
2022/10/05 00:24:57;;;;;;;;;;;;;;;;;;5114946;28;19959;-84
2022/10/05 00:27:26;;;;;;;;;;;;;;;;;;5115504;28;19915;-85
2022/10/05 00:29:52;;;;;;;;;;;;;;;;;;5098843;28;20317;-84
2022/10/05 00:32:18;;;;;;;;;;;;;;;;;;5115832;28;19915;-85
2022/10/05 00:34:43;;;;;;;;;;;;;;;;;;5116822;28;19923;-84
2022/10/05 00:37:08;;;;;;;;;;;;;;;;;;5115937;28;20010;-86
2022/10/05 00:39:35;;;;;;;;;;;;;;;;;;5115464;28;19971;-85
2022/10/05 00:42:12;;;;;;;;;;;;;;;;;;5098313;28;20317;-85
2022/10/05 00:44:38;;;;;;;;;;;;;;;;;;5116690;28;20380;-84
2022/10/05 00:47:21;;;;;;;;;;;;;;;;;;5116515;28;19954;-85
2022/10/05 00:49:59;;;;;;;;;;;;;;;;;;5116504;28;19916;-85
2022/10/05 00:52:33;;;;;;;;;;;;;;;;;;5116742;28;19912;-85
2022/10/05 00:55:10;;;;;;;;;;;;;;;;;;5116191;28;19915;-85
2022/10/05 00:57:42;;;;;;;;;;;;;;;;;;5116618;28;19915;-86
2022/10/05 01:00:25;;;;;;;;;;;;;;;;;;5116209;28;19974;-85
2022/10/05 01:03:04;;;;;;;;;;;;;;;;;;5098507;28;19916;-86
2022/10/05 01:05:29;;;;;;;;;;;;;;;;;;5115242;28;19916;-85
2022/10/05 01:08:15;;;;;;;;;;;;;;;;;;5116451;28;19962;-85
2022/10/05 01:10:46;;;;;;;;;;;;;;;;;;5115184;28;19919;-84
2022/10/05 01:13:23;;;;;;;;;;;;;;;;;;5098350;28;19996;-84
2022/10/05 01:16:12;;;;;;;;;;;;;;;;;;5115938;28;19923;-85
2022/10/05 01:18:49;;;;;;;;;;;;;;;;;;5106604;28;19920;-86
2022/10/05 01:21:21;;;;;;;;;;;;;;;;;;5098203;28;20003;-85
2022/10/05 01:23:49;;;;;;;;;;;;;;;;;;5114309;28;19912;-85
2022/10/05 01:26:20;;;;;;;;;;;;;;;;;;5114833;28;20420;-85
2022/10/05 01:28:47;;;;;;;;;;;;;;;;;;5114553;28;19912;-85
2022/10/05 01:31:18;;;;;;;;;;;;;;;;;;5115723;28;19916;-85
2022/10/05 01:33:49;;;;;;;;;;;;;;;;;;5115995;27;19973;-86
2022/10/05 01:36:20;;;;;;;;;;;;;;;;;;5115537;28;19912;-85
2022/10/05 01:38:55;;;;;;;;;;;;;;;;;;5114156;28;19955;-86
2022/10/05 01:41:20;;;;;;;;;;;;;;;;;;5116107;28;20270;-85
2022/10/05 01:43:46;;;;;;;;;;;;;;;;;;5115201;28;19976;-85
2022/10/05 01:46:29;;;;;;;;;;;;;;;;;;5114459;28;19916;-85
2022/10/05 01:49:13;;;;;;;;;;;;;;;;;;5097675;28;19947;-86
2022/10/05 01:51:55;;;;;;;;;;;;;;;;;;5114746;28;19922;-84
2022/10/05 01:54:23;;;;;;;;;;;;;;;;;;5113969;28;19916;-85
2022/10/05 01:56:49;;;;;;;;;;;;;;;;;;5114033;28;19916;-85
2022/10/05 01:59:15;;;;;;;;;;;;;;;;;;5114693;28;20279;-86
2022/10/05 02:01:40;;;;;;;;;;;;;;;;;;5115198;28;20238;-85
2022/10/05 02:04:12;;;;;;;;;;;;;;;;;;5114078;28;19920;-86
2022/10/05 02:06:38;;;;;;;;;;;;;;;;;;5115140;28;19916;-86
2022/10/05 02:09:05;;;;;;;;;;;;;;;;;;5097419;28;20311;-85
2022/10/05 02:11:39;;;;;;;;;;;;;;;;;;5097427;28;19916;-86
2022/10/05 02:14:15;;;;;;;;;;;;;;;;;;5096882;28;19915;-85
2022/10/05 02:16:41;;;;;;;;;;;;;;;;;;5114592;28;19923;-85
2022/10/05 02:19:13;;;;;;;;;;;;;;;;;;5114014;28;20233;-85
2022/10/05 02:21:41;;;;;;;;;;;;;;;;;;5113697;28;19916;-86
2022/10/05 02:24:09;;;;;;;;;;;;;;;;;;5113738;28;20344;-86
2022/10/05 02:26:34;;;;;;;;;;;;;;;;;;5113866;28;20006;-85
2022/10/05 02:29:06;;;;;;;;;;;;;;;;;;5096981;28;19955;-85
2022/10/05 02:31:50;;;;;;;;;;;;;;;;;;5114469;28;19920;-86
2022/10/05 02:34:24;;;;;;;;;;;;;;;;;;5115056;28;19999;-86
2022/10/05 02:36:51;;;;;;;;;;;;;;;;;;5114688;28;19973;-84
2022/10/05 02:39:22;;;;;;;;;;;;;;;;;;5096930;28;19915;-85
2022/10/05 02:41:56;;;;;;;;;;;;;;;;;;5111523;28;19927;-85
2022/10/05 02:44:43;;;;;;;;;;;;;;;;;;5098708;28;19959;-85
2022/10/05 02:47:09;;;;;;;;;;;;;;;;;;5080944;28;20340;-86
2022/10/05 02:49:48;;;;;;;;;;;;;;;;;;5098560;28;19916;-85
2022/10/05 02:52:20;;;;;;;;;;;;;;;;;;5081520;28;19923;-85
2022/10/05 02:55:13;;;;;;;;;;;;;;;;;;5099465;28;20311;-85
2022/10/05 02:57:39;;;;;;;;;;;;;;;;;;5058506;28;20317;-86
2022/10/05 03:00:08;;;;;;;;;;;;;;;;;;5064723;28;19916;-86
2022/10/05 03:02:52;;;;;;;;;;;;;;;;;;5099383;28;19965;-85
2022/10/05 03:05:21;;;;;;;;;;;;;;;;;;5098899;28;20003;-86
2022/10/05 03:08:02;;;;;;;;;;;;;;;;;;5064709;28;19916;-86
2022/10/05 03:10:29;;;;;;;;;;;;;;;;;;5081015;28;19923;-85
2022/10/05 03:12:58;;;;;;;;;;;;;;;;;;5080858;28;20315;-86
2022/10/05 03:15:47;;;;;;;;;;;;;;;;;;5080760;28;19916;-86
2022/10/05 03:18:13;;;;;;;;;;;;;;;;;;5064594;28;19924;-85
2022/10/05 03:20:58;;;;;;;;;;;;;;;;;;5080283;28;19920;-85
2022/10/05 03:23:29;;;;;;;;;;;;;;;;;;5049736;28;19927;-85
2022/10/05 03:25:54;;;;;;;;;;;;;;;;;;5080424;28;20321;-85
2022/10/05 03:28:29;;;;;;;;;;;;;;;;;;5098742;28;19916;-85
2022/10/05 03:30:54;;;;;;;;;;;;;;;;;;5098660;28;19916;-85
2022/10/05 03:33:31;;;;;;;;;;;;;;;;;;5099029;28;19980;-85
2022/10/05 03:36:00;;;;;;;;;;;;;;;;;;5080305;28;19977;-86
2022/10/05 03:38:32;;;;;;;;;;;;;;;;;;5098303;28;20260;-84
2022/10/05 03:41:16;;;;;;;;;;;;;;;;;;5098487;28;19973;-85
2022/10/05 03:43:42;;;;;;;;;;;;;;;;;;5113676;28;19920;-85
2022/10/05 03:46:26;;;;;;;;;;;;;;;;;;5118409;28;19945;-85
2022/10/05 03:48:54;;;;;;;;;;;;;;;;;;5119376;28;19916;-84
2022/10/05 03:51:43;;;;;;;;;;;;;;;;;;5118005;28;19922;-85
2022/10/05 03:54:27;;;;;;;;;;;;;;;;;;5109926;28;20283;-85
2022/10/05 03:56:56;;;;;;;;;;;;;;;;;;5101789;28;20317;-86
2022/10/05 03:59:25;;;;;;;;;;;;;;;;;;5100783;28;20332;-85
2022/10/05 04:01:52;;;;;;;;;;;;;;;;;;5101699;28;20313;-86
2022/10/05 04:04:19;;;;;;;;;;;;;;;;;;5118400;28;19912;-85
2022/10/05 04:06:48;;;;;;;;;;;;;;;;;;5103251;28;20057;-82
2022/10/05 04:09:15;;;;;;;;;;;;;;;;;;5103744;28;20325;-79
2022/10/05 04:11:47;;;;;;;;;;;;;;;;;;5098237;28;19916;-78
2022/10/05 04:14:33;;;;;;;;;;;;;;;;;;5097122;28;20249;-78
2022/10/05 04:16:59;;;;;;;;;;;;;;;;;;5097553;28;19935;-79
2022/10/05 04:19:26;;;;;;;;;;;;;;;;;;5098941;28;20347;-79
2022/10/05 04:21:54;;;;;;;;;;;;;;;;;;5112289;28;19935;-79
2022/10/05 04:24:29;;;;;;;;;;;;;;;;;;5110703;28;19959;-79
2022/10/05 04:26:55;;;;;;;;;;;;;;;;;;5112077;28;19951;-78
2022/10/05 04:29:20;;;;;;;;;;;;;;;;;;5111554;28;19923;-86
2022/10/05 04:32:12;;;;;;;;;;;;;;;;;;5116447;28;20336;-87
2022/10/05 04:38:21;;;;;;;;;;;;;;;;;;5087724;22;19924;-88
2022/10/05 04:47:00;;;;;;;;;;;;;;;;;;5109290;22;19963;-89
2022/10/05 04:50:00;;;;;;;;;;;;;;;;;;5103880;28;19931;-89
2022/10/05 04:58:16;;;;;;;;;;;;;;;;;;6083718;22;19924;-89
2022/10/05 05:00:48;;;;;;;;;;;;;;;;;;5076350;28;19938;-78
2022/10/05 05:03:32;;;;;;;;;;;;;;;;;;5067310;28;20014;-77
2022/10/05 05:06:05;;;;;;;;;;;;;;;;;;5069271;28;20472;-82
2022/10/05 05:08:45;;;;;;;;;;;;;;;;;;5046129;28;20541;-78
2022/10/05 05:11:37;;;;;;;;;;;;;;;;;;5063645;28;19928;-80
2022/10/05 05:14:21;;;;;;;;;;;;;;;;;;5045406;28;19952;-79
2022/10/05 05:16:48;;;;;;;;;;;;;;;;;;5061996;28;19995;-79
2022/10/05 05:19:18;;;;;;;;;;;;;;;;;;5042451;28;20047;-79
2022/10/05 05:22:01;;;;;;;;;;;;;;;;;;5064760;28;19983;-79
2022/10/05 05:24:31;;;;;;;;;;;;;;;;;;5039992;28;19917;-79
2022/10/05 05:27:02;;;;;;;;;;;;;;;;;;5067498;28;19928;-84
2022/10/05 05:29:31;;;;;;;;;;;;;;;;;;5041981;28;19917;-80
2022/10/05 05:31:59;;;;;;;;;;;;;;;;;;5060344;28;19928;-81
2022/10/05 05:34:24;;;;;;;;;;;;;;;;;;5059384;28;19923;-82
2022/10/05 05:36:53;;;;;;;;;;;;;;;;;;5062330;28;19925;-82
2022/10/05 05:39:18;;;;;;;;;;;;;;;;;;5046440;28;19932;-81
2022/10/05 05:42:02;;;;;;;;;;;;;;;;;;5049530;28;19920;-78
2022/10/05 05:44:29;;;;;;;;;;;;;;;;;;5061507;28;19978;-79
2022/10/05 05:47:21;;;;;;;;;;;;;;;;;;5065081;28;20072;-79
2022/10/05 05:50:02;;;;;;;;;;;;;;;;;;5064490;28;19921;-79
2022/10/05 05:52:32;;;;;;;;;;;;;;;;;;5052098;28;19928;-78
2022/10/05 05:55:07;;;;;;;;;;;;;;;;;;5065219;28;20655;-80
2022/10/05 05:57:44;;;;;;;;;;;;;;;;;;5047127;28;19960;-77
2022/10/05 06:00:12;;;;;;;;;;;;;;;;;;5057853;28;19928;-78
2022/10/05 06:02:42;;;;;;;;;;;;;;;;;;5066068;28;20031;-80
2022/10/05 06:05:22;;;;;;;;;;;;;;;;;;5068651;28;19923;-78
2022/10/05 06:07:51;;;;;;;;;;;;;;;;;;5067658;28;19920;-81
2022/10/05 06:10:23;;;;;;;;;;;;;;;;;;5066090;28;19920;-78
2022/10/05 06:12:49;;;;;;;;;;;;;;;;;;5048590;28;19931;-81
2022/10/05 06:15:14;;;;;;;;;;;;;;;;;;5059660;28;20249;-81
2022/10/05 06:17:42;;;;;;;;;;;;;;;;;;5076453;28;19921;-81
2022/10/05 06:20:29;;;;;;;;;;;;;;;;;;5070196;28;19986;-78
2022/10/05 06:22:54;;;;;;;;;;;;;;;;;;5065433;28;19927;-76
2022/10/05 06:25:24;;;;;;;;;;;;;;;;;;5053958;28;19925;-78
2022/10/05 06:28:00;;;;;;;;;;;;;;;;;;5055708;28;19927;-80
2022/10/05 06:30:33;;;;;;;;;;;;;;;;;;5073126;28;19921;-79
2022/10/05 06:33:02;;;;;;;;;;;;;;;;;;5074559;28;19920;-79
2022/10/05 06:35:56;;;;;;;;;;;;;;;;;;5044565;28;19974;-77
2022/10/05 06:38:44;;;;;;;;;;;;;;;;;;5057359;28;20223;-78
2022/10/05 06:41:09;;;;;;;;;;;;;;;;;;5071658;28;19924;-78
2022/10/05 06:43:53;;;;;;;;;;;;;;;;;;5054001;28;19927;-82
2022/10/05 06:46:39;;;;;;;;;;;;;;;;;;5065150;28;19916;-79
2022/10/05 06:49:07;;;;;;;;;;;;;;;;;;5056072;28;19968;-80
2022/10/05 06:51:51;;;;;;;;;;;;;;;;;;5073755;28;19920;-81
2022/10/05 06:54:35;;;;;;;;;;;;;;;;;;5067740;28;19921;-79
2022/10/05 06:57:14;;;;;;;;;;;;;;;;;;5057942;28;19939;-79
2022/10/05 07:00:10;;;;;;;;;;;;;;;;;;5056900;28;19980;-78
2022/10/05 07:02:55;;;;;;;;;;;;;;;;;;5057332;28;19920;-79
2022/10/05 07:05:21;;;;;;;;;;;;;;;;;;5066323;28;19916;-80
2022/10/05 07:08:19;;;;;;;;;;;;;;;;;;5059108;28;19928;-80
2022/10/05 07:10:47;;;;;;;;;;;;;;;;;;5033466;28;19920;-78
2022/10/05 07:13:15;;;;;;;;;;;;;;;;;;5081297;28;19939;-79
2022/10/05 07:15:40;;;;;;;;;;;;;;;;;;5067888;28;20370;-80
2022/10/05 07:18:12;;;;;;;;;;;;;;;;;;5072964;28;19928;-79
2022/10/05 07:20:41;;;;;;;;;;;;;;;;;;5078198;28;19947;-78
2022/10/05 07:23:13;;;;;;;;;;;;;;;;;;5074024;28;19936;-79
2022/10/05 07:26:02;;;;;;;;;;;;;;;;;;5074950;28;19923;-80
2022/10/05 07:28:47;;;;;;;;;;;;;;;;;;5019825;28;20015;-79
2022/10/05 07:31:24;;;;;;;;;;;;;;;;;;5057795;28;19924;-79
2022/10/05 07:34:23;;;;;;;;;;;;;;;;;;5075058;28;19964;-81
2022/10/05 07:39:38;;;;;;;;;;;;;;;;;;5048369;28;19927;-78
2022/10/05 07:42:24;;;;;;;;;;;;;;;;;;5053787;28;20341;-79
2022/10/05 07:44:52;;;;;;;;;;;;;;;;;;5062730;28;19916;-78
2022/10/05 07:47:24;;;;;;;;;;;;;;;;;;5033496;28;19917;-80
2022/10/05 07:50:15;;;;;;;;;;;;;;;;;;5062384;28;19999;-79
2022/10/05 07:52:41;;;;;;;;;;;;;;;;;;5039403;28;20230;-78
2022/10/05 07:55:20;;;;;;;;;;;;;;;;;;5054833;28;19936;-80
2022/10/05 07:58:04;;;;;;;;;;;;;;;;;;5050569;28;19928;-79
2022/10/05 08:01:01;;;;;;;;;;;;;;;;;;5068651;28;19925;-78
2022/10/05 08:03:30;;;;;;;;;;;;;;;;;;5047580;28;19920;-77
2022/10/05 08:05:56;;;;;;;;;;;;;;;;;;5062922;28;20321;-78
2022/10/05 08:08:35;;;;;;;;;;;;;;;;;;5066484;28;19921;-78
2022/10/05 08:11:10;;;;;;;;;;;;;;;;;;5052957;28;20549;-80
2022/10/05 08:13:54;;;;;;;;;;;;;;;;;;5049249;28;19921;-83
2022/10/05 08:16:20;;;;;;;;;;;;;;;;;;5063912;28;19927;-84
2022/10/05 08:18:55;;;;;;;;;;;;;;;;;;5070174;28;20184;-78
2022/10/05 08:21:50;;;;;;;;;;;;;;;;;;5054956;28;19916;-80
2022/10/05 08:24:35;;;;;;;;;;;;;;;;;;5051403;28;20280;-81
2022/10/05 08:27:05;;;;;;;;;;;;;;;;;;5040143;28;20099;-81
2022/10/05 08:29:30;;;;;;;;;;;;;;;;;;5055231;28;19923;-83
2022/10/05 08:31:57;;;;;;;;;;;;;;;;;;5073658;28;19917;-83
2022/10/05 08:34:26;;;;;;;;;;;;;;;;;;5076569;28;19921;-83
2022/10/05 08:37:01;;;;;;;;;;;;;;;;;;5056701;28;20325;-82
2022/10/05 08:39:31;;;;;;;;;;;;;;;;;;5043957;28;19970;-82
2022/10/05 08:42:08;;;;;;;;;;;;;;;;;;5061834;28;20243;-81
2022/10/05 08:44:33;;;;;;;;;;;;;;;;;;5058163;28;19923;-83
2022/10/05 08:47:05;;;;;;;;;;;;;;;;;;5077338;28;19917;-82
2022/10/05 08:49:33;;;;;;;;;;;;;;;;;;5079170;28;19916;-81
2022/10/05 08:52:19;;;;;;;;;;;;;;;;;;5074275;28;19920;-78
2022/10/05 08:54:51;;;;;;;;;;;;;;;;;;5063270;28;19944;-79
2022/10/05 08:57:22;;;;;;;;;;;;;;;;;;5063394;28;19920;-82
2022/10/05 09:00:01;;;;;;;;;;;;;;;;;;5076009;28;19924;-82
2022/10/05 09:02:29;;;;;;;;;;;;;;;;;;5055573;28;19920;-81
2022/10/05 09:05:07;;;;;;;;;;;;;;;;;;5057261;28;20190;-81
2022/10/05 09:07:40;;;;;;;;;;;;;;;;;;5058153;28;19943;-81
2022/10/05 09:10:27;;;;;;;;;;;;;;;;;;5075266;28;20022;-81
2022/10/05 09:13:09;;;;;;;;;;;;;;;;;;5074578;28;19920;-81
2022/10/05 09:15:54;;;;;;;;;;;;;;;;;;5053690;28;19920;-81
2022/10/05 09:18:19;;;;;;;;;;;;;;;;;;5070547;28;20019;-81
2022/10/05 09:20:47;;;;;;;;;;;;;;;;;;5074668;28;20023;-82
2022/10/05 09:23:21;;;;;;;;;;;;;;;;;;5071688;28;19920;-81
2022/10/05 09:26:02;;;;;;;;;;;;;;;;;;5056476;28;19939;-81
2022/10/05 09:28:33;;;;;;;;;;;;;;;;;;5055207;28;19924;-80
2022/10/05 09:31:02;;;;;;;;;;;;;;;;;;5038364;28;19956;-78
2022/10/05 09:33:33;;;;;;;;;;;;;;;;;;5073029;28;19920;-81
2022/10/05 09:36:17;;;;;;;;;;;;;;;;;;5058515;28;20317;-79
2022/10/05 09:38:51;;;;;;;;;;;;;;;;;;5073974;28;19978;-80
2022/10/05 09:41:23;;;;;;;;;;;;;;;;;;5057081;28;20300;-79
2022/10/05 09:44:07;;;;;;;;;;;;;;;;;;5073801;28;19921;-79
2022/10/05 09:46:39;;;;;;;;;;;;;;;;;;5068918;28;19940;-81
2022/10/05 09:49:22;;;;;;;;;;;;;;;;;;5053874;28;19916;-80
2022/10/05 09:51:58;;;;;;;;;;;;;;;;;;5066437;28;19933;-80
2022/10/05 09:54:42;;;;;;;;;;;;;;;;;;5051797;28;19993;-80
2022/10/05 09:57:26;;;;;;;;;;;;;;;;;;5051133;28;19939;-80
2022/10/05 09:59:52;;;;;;;;;;;;;;;;;;5078720;28;20006;-81
2022/10/05 10:02:19;;;;;;;;;;;;;;;;;;5090387;28;20057;-81
2022/10/05 10:05:05;;;;;;;;;;;;;;;;;;5088153;28;19916;-81
2022/10/05 10:07:51;;;;;;;;;;;;;;;;;;5089183;28;19924;-80
2022/10/05 10:10:35;;;;;;;;;;;;;;;;;;5048115;28;19916;-81
2022/10/05 10:13:03;;;;;;;;;;;;;;;;;;5072440;28;19916;-82
2022/10/05 10:15:32;;;;;;;;;;;;;;;;;;5091852;28;19916;-81
2022/10/05 10:17:58;;;;;;;;;;;;;;;;;;5092655;28;19916;-79
2022/10/05 10:20:26;;;;;;;;;;;;;;;;;;5092675;28;19920;-81
2022/10/05 10:22:51;;;;;;;;;;;;;;;;;;5091424;28;20003;-80
2022/10/05 10:25:34;;;;;;;;;;;;;;;;;;5094443;28;20370;-79
2022/10/05 10:28:06;;;;;;;;;;;;;;;;;;5075970;28;19939;-79
2022/10/05 10:30:40;;;;;;;;;;;;;;;;;;5074000;28;20015;-80
2022/10/05 10:33:24;;;;;;;;;;;;;;;;;;5072528;28;19920;-81
2022/10/05 10:35:53;;;;;;;;;;;;;;;;;;5089814;28;19950;-81
2022/10/05 10:38:31;;;;;;;;;;;;;;;;;;5060711;28;19920;-79
2022/10/05 10:41:14;;;;;;;;;;;;;;;;;;5093071;28;20248;-81
2022/10/05 10:43:42;;;;;;;;;;;;;;;;;;5092304;28;19916;-80
2022/10/05 10:46:17;;;;;;;;;;;;;;;;;;5073173;28;19956;-79
2022/10/05 10:48:50;;;;;;;;;;;;;;;;;;5090687;28;19924;-79
2022/10/05 10:51:34;;;;;;;;;;;;;;;;;;5072398;28;19994;-80
2022/10/05 10:54:18;;;;;;;;;;;;;;;;;;5082073;28;20408;-79
2022/10/05 10:56:44;;;;;;;;;;;;;;;;;;5081312;28;20313;-80
2022/10/05 10:59:23;;;;;;;;;;;;;;;;;;5087002;28;19920;-80
2022/10/05 11:01:51;;;;;;;;;;;;;;;;;;5089574;28;19966;-79
2022/10/05 11:04:35;;;;;;;;;;;;;;;;;;5090563;28;19916;-79
2022/10/05 11:07:03;;;;;;;;;;;;;;;;;;5088862;28;19916;-81
2022/10/05 11:09:47;;;;;;;;;;;;;;;;;;5089235;28;19989;-81
2022/10/05 11:12:51;;;;;;;;;;;;;;;;;;5092810;28;19956;-81
2022/10/05 11:15:16;;;;;;;;;;;;;;;;;;5042494;28;19991;-79
2022/10/05 11:17:47;;;;;;;;;;;;;;;;;;5038429;28;20314;-78
2022/10/05 11:20:13;;;;;;;;;;;;;;;;;;5066091;28;20426;-77
2022/10/05 11:22:41;;;;;;;;;;;;;;;;;;5095958;28;19920;-80
2022/10/05 11:25:16;;;;;;;;;;;;;;;;;;5075914;28;19920;-80
2022/10/05 11:27:59;;;;;;;;;;;;;;;;;;5095473;28;19916;-80
2022/10/05 11:30:29;;;;;;;;;;;;;;;;;;5089564;28;19943;-82
2022/10/05 11:33:10;;;;;;;;;;;;;;;;;;5086756;28;20032;-77
2022/10/05 11:35:36;;;;;;;;;;;;;;;;;;5089181;28;20499;-79
2022/10/05 11:38:01;;;;;;;;;;;;;;;;;;5088659;28;19935;-77
2022/10/05 11:41:05;;;;;;;;;;;;;;;;;;5088853;28;19967;-78
2022/10/05 11:43:48;;;;;;;;;;;;;;;;;;5045778;28;19939;-78
2022/10/05 11:46:32;;;;;;;;;;;;;;;;;;5047121;28;19917;-78
2022/10/05 11:49:08;;;;;;;;;;;;;;;;;;5078366;28;19920;-78
2022/10/05 11:51:37;;;;;;;;;;;;;;;;;;5089816;28;19916;-78
2022/10/05 11:54:05;;;;;;;;;;;;;;;;;;5092338;28;20345;-77
2022/10/05 11:56:34;;;;;;;;;;;;;;;;;;5091243;28;19920;-78
2022/10/05 11:59:20;;;;;;;;;;;;;;;;;;5090428;28;20341;-78
2022/10/05 12:01:55;;;;;;;;;;;;;;;;;;5069584;28;19916;-78
2022/10/05 12:04:20;;;;;;;;;;;;;;;;;;5092507;28;19947;-77
2022/10/05 12:06:54;;;;;;;;;;;;;;;;;;5093789;28;19955;-78
2022/10/05 12:09:39;;;;;;;;;;;;;;;;;;5076651;28;20026;-77
2022/10/05 12:12:13;;;;;;;;;;;;;;;;;;5095868;28;19920;-78
2022/10/05 12:14:48;;;;;;;;;;;;;;;;;;5078161;28;19945;-78
2022/10/05 12:17:13;;;;;;;;;;;;;;;;;;5096042;28;19923;-78
2022/10/05 12:19:47;;;;;;;;;;;;;;;;;;5096571;28;19916;-78
2022/10/05 12:22:16;;;;;;;;;;;;;;;;;;5078716;28;20268;-78
2022/10/05 12:25:00;;;;;;;;;;;;;;;;;;5073681;28;20295;-79
2022/10/05 12:27:26;;;;;;;;;;;;;;;;;;5074270;28;19920;-78
2022/10/05 12:29:57;;;;;;;;;;;;;;;;;;5075224;28;20281;-77
2022/10/05 12:32:23;;;;;;;;;;;;;;;;;;5075677;28;19924;-79
2022/10/05 12:34:54;;;;;;;;;;;;;;;;;;5074693;28;19916;-78
2022/10/05 12:37:50;;;;;;;;;;;;;;;;;;5074621;28;19939;-78
2022/10/05 12:40:18;;;;;;;;;;;;;;;;;;5061528;28;19920;-78
2022/10/05 12:43:03;;;;;;;;;;;;;;;;;;5071615;28;19917;-77
2022/10/05 12:45:45;;;;;;;;;;;;;;;;;;5072102;28;19913;-78
2022/10/05 12:48:13;;;;;;;;;;;;;;;;;;5073570;28;20453;-77
2022/10/05 12:50:41;;;;;;;;;;;;;;;;;;5074078;28;20310;-78
2022/10/05 12:53:07;;;;;;;;;;;;;;;;;;5073611;28;19995;-78
2022/10/05 12:55:38;;;;;;;;;;;;;;;;;;5075184;28;19995;-78
2022/10/05 12:58:27;;;;;;;;;;;;;;;;;;5071126;28;19931;-78
2022/10/05 13:01:00;;;;;;;;;;;;;;;;;;5046849;28;19917;-78
2022/10/05 13:03:27;;;;;;;;;;;;;;;;;;5055533;28;19973;-77
2022/10/05 13:05:53;;;;;;;;;;;;;;;;;;5037662;28;19963;-77
2022/10/05 13:08:39;;;;;;;;;;;;;;;;;;5055416;28;19917;-78
2022/10/05 13:11:07;;;;;;;;;;;;;;;;;;5037378;28;19913;-78
2022/10/05 13:13:39;;;;;;;;;;;;;;;;;;5036475;28;20007;-78
2022/10/05 13:16:10;;;;;;;;;;;;;;;;;;5053693;28;19917;-77
2022/10/05 13:18:35;;;;;;;;;;;;;;;;;;5037223;28;19917;-76
2022/10/05 13:21:07;;;;;;;;;;;;;;;;;;5055222;28;19926;-77
2022/10/05 13:23:44;;;;;;;;;;;;;;;;;;5055038;28;19923;-78
2022/10/05 13:26:11;;;;;;;;;;;;;;;;;;5054899;28;20031;-79
2022/10/05 13:28:39;;;;;;;;;;;;;;;;;;5036973;28;19917;-78
2022/10/05 13:31:30;;;;;;;;;;;;;;;;;;5037065;28;20003;-78
2022/10/05 13:34:02;;;;;;;;;;;;;;;;;;5049651;28;19916;-78
2022/10/05 13:36:32;;;;;;;;;;;;;;;;;;5053243;28;19920;-78
2022/10/05 13:39:02;;;;;;;;;;;;;;;;;;5018991;28;19917;-79
2022/10/05 13:41:34;;;;;;;;;;;;;;;;;;5035433;28;19917;-77
2022/10/05 13:44:17;;;;;;;;;;;;;;;;;;5052573;28;19916;-78
2022/10/05 13:46:52;;;;;;;;;;;;;;;;;;5035609;28;20011;-78
2022/10/05 13:49:17;;;;;;;;;;;;;;;;;;5020269;28;19917;-78
2022/10/05 13:51:49;;;;;;;;;;;;;;;;;;5036770;28;20352;-78
2022/10/05 13:54:17;;;;;;;;;;;;;;;;;;5054503;28;19928;-77
2022/10/05 13:56:44;;;;;;;;;;;;;;;;;;5054171;28;20005;-77
2022/10/05 13:59:13;;;;;;;;;;;;;;;;;;5044720;28;20433;-78
2022/10/05 14:01:50;;;;;;;;;;;;;;;;;;5053295;28;19920;-78
2022/10/05 14:04:19;;;;;;;;;;;;;;;;;;5036400;28;20266;-78
2022/10/05 14:06:45;;;;;;;;;;;;;;;;;;5052734;28;20366;-78
2022/10/05 14:09:20;;;;;;;;;;;;;;;;;;5052982;28;19952;-78
2022/10/05 14:12:01;;;;;;;;;;;;;;;;;;5069441;28;19959;-77
2022/10/05 14:14:29;;;;;;;;;;;;;;;;;;5053679;28;19928;-77
2022/10/05 14:16:55;;;;;;;;;;;;;;;;;;5036645;28;20276;-78
2022/10/05 14:19:30;;;;;;;;;;;;;;;;;;5054028;28;19917;-77
2022/10/05 14:22:02;;;;;;;;;;;;;;;;;;5052686;28;19924;-78
2022/10/05 14:24:31;;;;;;;;;;;;;;;;;;5054276;28;19936;-77
2022/10/05 14:26:57;;;;;;;;;;;;;;;;;;5053855;28;20208;-77
2022/10/05 14:29:23;;;;;;;;;;;;;;;;;;5052954;28;19924;-78
2022/10/05 14:31:51;;;;;;;;;;;;;;;;;;5052560;28;19917;-78
2022/10/05 14:34:31;;;;;;;;;;;;;;;;;;5052667;28;20322;-78
2022/10/05 14:36:58;;;;;;;;;;;;;;;;;;5053783;28;19971;-79
2022/10/05 14:39:24;;;;;;;;;;;;;;;;;;5053921;28;19917;-77
2022/10/05 14:41:49;;;;;;;;;;;;;;;;;;5053452;28;19955;-77
2022/10/05 14:44:15;;;;;;;;;;;;;;;;;;5053631;28;20381;-87
2022/10/05 14:47:02;;;;;;;;;;;;;;;;;;5073868;28;19917;-87
2022/10/05 14:49:36;;;;;;;;;;;;;;;;;;5056846;28;19924;-86
2022/10/05 14:52:21;;;;;;;;;;;;;;;;;;5056611;28;19924;-86
2022/10/05 14:54:52;;;;;;;;;;;;;;;;;;5040153;28;19924;-87
2022/10/05 14:57:32;;;;;;;;;;;;;;;;;;5056332;28;19952;-87
2022/10/05 15:00:17;;;;;;;;;;;;;;;;;;5056343;28;19921;-88
2022/10/05 15:02:46;;;;;;;;;;;;;;;;;;5040391;28;19983;-87
2022/10/05 15:05:18;;;;;;;;;;;;;;;;;;5056462;28;19952;-87
2022/10/05 15:07:44;;;;;;;;;;;;;;;;;;5073281;28;20091;-87
2022/10/05 15:10:13;;;;;;;;;;;;;;;;;;5056117;28;19917;-86
2022/10/05 15:12:38;;;;;;;;;;;;;;;;;;5073262;28;19917;-86
2022/10/05 15:15:10;;;;;;;;;;;;;;;;;;5056532;28;19975;-86
2022/10/05 15:17:37;;;;;;;;;;;;;;;;;;5057398;28;19917;-84
2022/10/05 15:20:06;;;;;;;;;;;;;;;;;;5056251;28;19921;-86
2022/10/05 15:22:40;;;;;;;;;;;;;;;;;;5057655;28;20358;-86
2022/10/05 15:25:15;;;;;;;;;;;;;;;;;;5057173;28;19956;-85
2022/10/05 15:27:50;;;;;;;;;;;;;;;;;;5055967;28;19933;-85
2022/10/05 15:30:16;;;;;;;;;;;;;;;;;;5057629;28;19924;-86
2022/10/05 15:32:46;;;;;;;;;;;;;;;;;;5039952;28;19967;-86
2022/10/05 15:35:12;;;;;;;;;;;;;;;;;;5056040;28;19917;-86
2022/10/05 15:37:41;;;;;;;;;;;;;;;;;;5072742;28;19917;-86
2022/10/05 15:40:13;;;;;;;;;;;;;;;;;;5056850;28;19921;-85
2022/10/05 15:42:41;;;;;;;;;;;;;;;;;;5040413;28;20004;-86
2022/10/05 15:45:22;;;;;;;;;;;;;;;;;;5040817;28;19938;-86
2022/10/05 15:47:53;;;;;;;;;;;;;;;;;;5076320;28;19908;-85
2022/10/05 15:50:21;;;;;;;;;;;;;;;;;;5080449;28;19921;-85
2022/10/05 15:52:49;;;;;;;;;;;;;;;;;;5079920;28;19909;-84
2022/10/05 15:55:19;;;;;;;;;;;;;;;;;;5079447;28;19908;-85
2022/10/05 15:57:51;;;;;;;;;;;;;;;;;;5062940;28;19925;-84
2022/10/05 16:00:17;;;;;;;;;;;;;;;;;;5079996;28;19924;-82
2022/10/05 16:02:42;;;;;;;;;;;;;;;;;;5063286;28;19904;-84
2022/10/05 16:05:16;;;;;;;;;;;;;;;;;;5063014;28;19932;-84
2022/10/05 16:10:31;;;;;;;;;;;;;;;;;;5065810;28;20015;-84
2022/10/05 16:13:11;;;;;;;;;;;;;;;;;;5062948;28;19921;-83
2022/10/05 16:15:38;;;;;;;;;;;;;;;;;;5023082;28;19917;-85
2022/10/05 16:18:06;;;;;;;;;;;;;;;;;;5038599;28;20364;-86
2022/10/05 16:20:49;;;;;;;;;;;;;;;;;;5038687;28;19917;-85
2022/10/05 16:23:33;;;;;;;;;;;;;;;;;;5022031;28;19917;-86
2022/10/05 16:26:02;;;;;;;;;;;;;;;;;;5038587;28;20323;-86
2022/10/05 16:28:35;;;;;;;;;;;;;;;;;;5021653;28;19923;-86
2022/10/05 16:31:04;;;;;;;;;;;;;;;;;;5056183;28;19917;-85
2022/10/05 16:33:36;;;;;;;;;;;;;;;;;;5055969;28;19917;-85
2022/10/05 16:36:08;;;;;;;;;;;;;;;;;;5055982;28;19917;-86
2022/10/05 16:38:33;;;;;;;;;;;;;;;;;;5021138;28;20407;-86
2022/10/05 16:41:02;;;;;;;;;;;;;;;;;;5055781;28;19916;-86
2022/10/05 16:43:31;;;;;;;;;;;;;;;;;;5038038;28;19916;-85
2022/10/05 16:45:56;;;;;;;;;;;;;;;;;;5021404;28;19917;-85
2022/10/05 16:48:21;;;;;;;;;;;;;;;;;;5055632;28;19917;-86
2022/10/05 16:51:00;;;;;;;;;;;;;;;;;;5055795;28;19916;-86
2022/10/05 16:53:30;;;;;;;;;;;;;;;;;;5055391;28;20346;-86
2022/10/05 16:55:56;;;;;;;;;;;;;;;;;;5021384;28;19998;-86
2022/10/05 16:58:28;;;;;;;;;;;;;;;;;;5055603;28;19925;-85
2022/10/05 17:00:53;;;;;;;;;;;;;;;;;;5037790;28;20300;-86
2022/10/05 17:03:39;;;;;;;;;;;;;;;;;;5055587;28;19923;-87
2022/10/05 17:06:08;;;;;;;;;;;;;;;;;;5037798;28;19982;-86
2022/10/05 17:08:48;;;;;;;;;;;;;;;;;;5054711;28;19917;-86
2022/10/05 17:11:26;;;;;;;;;;;;;;;;;;5055223;28;19917;-86
2022/10/05 17:13:56;;;;;;;;;;;;;;;;;;5055215;28;20003;-85
2022/10/05 17:16:27;;;;;;;;;;;;;;;;;;5021070;28;19917;-86
2022/10/05 17:18:57;;;;;;;;;;;;;;;;;;5037419;28;19924;-87
2022/10/05 17:21:29;;;;;;;;;;;;;;;;;;5037453;28;20245;-87
2022/10/05 17:24:01;;;;;;;;;;;;;;;;;;5037429;28;19923;-87
2022/10/05 17:26:44;;;;;;;;;;;;;;;;;;5037491;28;19923;-86
2022/10/05 17:29:26;;;;;;;;;;;;;;;;;;5037396;28;19916;-86
2022/10/05 17:31:58;;;;;;;;;;;;;;;;;;5052535;28;19924;-85
2022/10/05 17:34:25;;;;;;;;;;;;;;;;;;5057468;28;19952;-86
2022/10/05 17:36:56;;;;;;;;;;;;;;;;;;5073216;28;20417;-86
2022/10/05 17:39:40;;;;;;;;;;;;;;;;;;5057182;28;19966;-85
2022/10/05 17:42:24;;;;;;;;;;;;;;;;;;5073714;28;19917;-85
2022/10/05 17:44:52;;;;;;;;;;;;;;;;;;5074934;28;20393;-86
2022/10/05 17:47:17;;;;;;;;;;;;;;;;;;5058273;28;19917;-86
2022/10/05 17:55:24;;;;;;;;;;;;;;;;;;5058833;28;19913;-85